Latest Weather Observations for Horsham

IDV60801

Issued at 4:32 pm EDT Sunday 7 February 2016 (issued every 30 minutes, with the page automatically refreshed every 10 minutes)

About weather observations | Map of weather stations | Latest weather observations for VIC | Other Formats
Station Details ID: 079100 Name: HORSHAM AERODROME Lat: -36.67 Lon: 142.17 Height: 133.8 m
Data from the previous 72 hours. | See also: Recent months at Horsham
Date/Time
EDT
Temp
°C
App
Temp
°C
Dew
Point
Rel
Hum
%
Delta-T
°C
Wind Press
QNH
hPa
Press
MSL
hPa
Rain
since 9 am
mm
Dir
 
Spd
km/h
Gust
km/h
Spd
kts
Gust
kts
07/04:30pm 34.8 31.6 5.3 16 15.9 NNE 11 20 6 11 1014.8 1014.3 0.0
07/04:00pm 35.0 32.2 7.1 18 15.5 W 11 20 6 11 1014.9 1014.4 0.0
07/03:30pm 34.5 30.9 6.7 18 15.3 WNW 15 26 8 14 1015.1 1014.6 0.0
07/03:00pm 34.9 30.4 7.1 18 15.4 WSW 20 28 11 15 1015.4 1014.9 0.0
07/02:30pm 33.8 30.8 7.7 20 14.6 SSW 13 28 7 15 1015.7 1015.2 0.0
07/02:00pm 33.4 31.3 8.1 21 14.2 SW 9 20 5 11 1015.9 1015.4 0.0
07/01:30pm 32.6 29.7 8.1 22 13.7 SW 13 20 7 11 1016.1 1015.6 0.0
07/01:00pm 32.2 30.0 7.8 22 13.5 SW 9 20 5 11 1016.5 1016.0 0.0
07/12:30pm 31.9 29.9 8.8 24 13.0 WSW 9 20 5 11 1016.6 1016.1 0.0
07/12:00pm 31.0 29.2 9.3 26 12.2 WSW 9 15 5 8 1016.8 1016.3 0.0
07/11:30am 30.3 29.0 9.2 27 11.9 N 6 15 3 8 1016.9 1016.4 0.0
07/11:00am 28.9 27.6 10.1 31 10.6 NE 7 13 4 7 1017.1 1016.6 0.0
07/10:30am 28.2 27.2 10.9 34 9.9 ESE 7 13 4 7 1017.3 1016.8 0.0
07/10:00am 26.5 25.1 11.0 38 8.8 SE 9 11 5 6 1017.3 1016.8 0.0
07/09:30am 24.8 23.0 10.7 41 7.9 SE 11 15 6 8 1017.2 1016.7 0.0
07/09:00am 23.0 21.1 10.4 45 7.0 S 11 17 6 9 1017.1 1016.6 0.0
07/08:30am 21.6 19.7 11.9 54 5.5 SE 13 17 7 9 1016.7 1016.2 0.0
07/08:00am 19.2 17.6 11.7 62 4.2 SE 11 11 6 6 1016.4 1015.9 0.0
07/07:30am 17.1 14.9 10.7 66 3.4 E 13 13 7 7 1016.0 1015.5 0.0
07/07:00am 16.8 13.8 10.6 67 3.3 E 17 19 9 10 1015.5 1015.0 0.0
07/06:30am 16.6 14.2 10.0 65 3.5 E 13 13 7 7 1015.2 1014.7 0.0
07/06:00am 18.4 16.9 10.5 60 4.3 E 9 9 5 5 1014.8 1014.3 0.0
07/05:30am 18.9 17.4 10.5 58 4.5 ESE 9 11 5 6 1014.8 1014.3 0.0
07/05:00am 19.1 17.8 10.1 56 4.8 E 7 11 4 6 1014.6 1014.1 0.0
07/04:30am 20.1 16.3 9.7 51 5.6 E 20 22 11 12 1014.4 1013.9 0.0
07/04:00am 17.7 14.4 9.6 59 4.3 E 17 19 9 10 1014.7 1014.2 0.0
07/03:30am 17.2 14.7 9.6 61 4.0 E 13 15 7 8 1015.0 1014.5 0.0
07/03:00am 18.1 16.7 9.5 57 4.5 S 7 9 4 5 1015.1 1014.6 0.0
07/02:30am 20.7 19.1 10.2 51 5.7 SSW 9 13 5 7 1015.3 1014.8 0.0
07/02:00am 21.1 18.7 10.0 49 6.0 SW 13 15 7 8 1015.3 1014.8 0.0
07/01:30am 19.7 18.5 9.6 52 5.4 WSW 6 9 3 5 1015.5 1015.0 0.0
07/01:00am 20.5 18.6 9.1 48 6.1 SSE 9 11 5 6 1015.4 1014.9 0.0
07/12:30am 22.1 20.0 9.6 45 6.8 S 11 15 6 8 1015.4 1014.9 0.0
07/12:00am 23.4 21.2 9.4 41 7.6 SSE 11 13 6 7 1015.3 1014.8 0.0
 
Date/Time
EDT
Temp
°C
App
Temp
°C
Dew
Point
Rel
Hum
%
Delta-T
°C
Wind Press
QNH
hPa
Press
MSL
hPa
Rain
since 9 am
mm
Dir
 
Spd
km/h
Gust
km/h
Spd
kts
Gust
kts
06/11:30pm 23.3 19.9 9.3 41 7.6 SE 17 19 9 10 1015.3 1014.8 0.0
06/11:00pm 23.9 20.8 8.7 38 8.2 SE 15 20 8 11 1015.1 1014.6 0.0
06/10:30pm 23.3 20.5 7.0 35 8.5 NNE 11 13 6 7 1014.4 1013.9 0.0
06/10:00pm 24.5 21.0 7.2 33 9.1 NE 15 17 8 9 1014.1 1013.6 0.0
06/09:30pm 25.7 22.5 6.8 30 9.9 ENE 13 15 7 8 1013.8 1013.3 0.0
06/09:00pm 28.3 26.3 7.0 26 11.4 ENE 7 9 4 5 1013.4 1013.0 0.0
06/08:30pm 30.4 28.4 6.3 22 12.9 E 6 7 3 4 1013.2 1012.8 0.0
06/08:00pm 31.8 29.6 6.1 20 13.8 ESE 7 13 4 7 1013.0 1012.6 0.0
06/07:30pm 32.3 29.4 6.5 20 14.0 SE 11 17 6 9 1012.8 1012.4 0.0
06/07:00pm 32.5 29.6 6.7 20 14.1 ESE 11 19 6 10 1012.7 1012.2 0.0
06/06:30pm 32.6 29.7 6.7 20 14.1 NE 11 17 6 9 1012.7 1012.2 0.0
06/06:00pm 33.4 30.5 6.6 19 14.7 SE 11 17 6 9 1012.8 1012.4 0.0
06/05:30pm 33.2 31.3 6.5 19 14.6 NE 6 7 3 4 1012.8 1012.4 0.0
06/05:00pm 32.7 29.9 6.8 20 14.2 ESE 11 17 6 9 1012.9 1012.5 0.0
06/04:30pm 32.6 29.7 6.7 20 14.1 ENE 11 17 6 9 1013.2 1012.8 0.0
06/04:00pm 32.8 30.9 6.9 20 14.2 S 6 13 3 7 1013.7 1013.2 0.0
06/03:30pm 31.4 28.1 6.5 21 13.5 N 13 24 7 13 1014.1 1013.6 0.0
06/03:00pm 31.8 29.9 7.5 22 13.4 WNW 7 19 4 10 1014.5 1014.0 0.0
06/02:30pm 31.9 29.4 8.2 23 13.2 NNE 11 22 6 12 1014.9 1014.4 0.0
06/02:00pm 30.3 27.9 8.7 26 12.0 NW 11 17 6 9 1015.5 1015.0 0.0
06/01:30pm 30.4 28.0 8.7 26 12.1 NW 11 20 6 11 1015.8 1015.3 0.0
06/01:00pm 29.7 27.7 8.7 27 11.7 NNE 9 17 5 9 1016.1 1015.6 0.0
06/12:30pm 29.1 26.1 9.3 29 11.1 NNW 15 22 8 12 1016.4 1015.9 0.0
06/12:00pm 28.4 25.2 10.1 32 10.3 N 17 24 9 13 1016.8 1016.3 0.0
06/11:30am 26.8 23.3 10.1 35 9.4 N 19 28 10 15 1017.1 1016.6 0.0
06/11:00am 25.8 22.1 10.0 37 8.8 NNE 20 28 11 15 1017.3 1016.8 0.0
06/10:30am 25.3 21.4 10.7 40 8.2 NNE 22 30 12 16 1017.4 1016.9 0.0
06/10:00am 24.5 20.1 10.4 41 7.8 NNE 24 30 13 16 1017.5 1017.0 0.0
06/09:30am 23.6 18.2 11.0 45 7.1 NNE 30 35 16 19 1017.5 1017.0 0.0
06/09:00am 22.5 18.4 11.6 50 6.1 NE 24 30 13 16 1017.2 1016.7 0.0
06/08:30am 20.9 15.8 11.8 56 5.1 NE 30 35 16 19 1016.9 1016.4 0.0
06/08:00am 19.1 15.3 12.4 65 3.8 ENE 24 32 13 17 1016.5 1016.0 0.0
06/07:30am 17.3 14.8 12.4 73 2.7 ENE 17 19 9 10 1016.3 1015.8 0.0
06/07:00am 16.1 13.5 12.1 77 2.2 E 17 20 9 11 1015.9 1015.4 0.0
06/06:30am 16.5 14.0 12.3 76 2.3 E 17 20 9 11 1015.6 1015.1 0.0
06/06:00am 16.9 14.4 12.2 74 2.6 E 17 20 9 11 1015.3 1014.8 0.0
06/05:30am 17.2 14.7 12.3 73 2.7 E 17 20 9 11 1015.1 1014.6 0.0
06/05:00am 17.9 14.9 12.1 69 3.2 E 19 22 10 12 1015.0 1014.5 0.0
06/04:30am 16.9 14.6 11.6 71 2.9 ESE 15 17 8 9 1015.0 1014.5 0.0
06/04:00am 17.6 15.6 11.6 68 3.3 ESE 13 15 7 8 1015.1 1014.6 0.0
06/03:30am 18.5 16.2 11.8 65 3.7 ESE 15 19 8 10 1015.1 1014.6 0.0
06/03:00am 19.4 16.9 12.2 63 4.0 ESE 17 19 9 10 1015.3 1014.8 0.0
06/02:30am 19.8 16.4 12.6 63 4.1 ESE 22 26 12 14 1015.2 1014.7 0.0
06/02:00am 19.8 16.7 12.3 62 4.2 SE 20 28 11 15 1015.5 1015.0 0.0
06/01:30am 20.2 16.8 12.4 61 4.4 ESE 22 28 12 15 1015.5 1015.0 0.0
06/01:00am 20.9 16.4 12.6 59 4.7 ESE 28 35 15 19 1015.7 1015.2 0.0
06/12:30am 21.3 17.0 12.2 56 5.1 ESE 26 32 14 17 1015.9 1015.4 0.0
06/12:00am 22.0 17.6 11.7 52 5.8 ESE 26 33 14 18 1016.0 1015.5 0.0
 
Date/Time
EDT
Temp
°C
App
Temp
°C
Dew
Point
Rel
Hum
%
Delta-T
°C
Wind Press
QNH
hPa
Press
MSL
hPa
Rain
since 9 am
mm
Dir
 
Spd
km/h
Gust
km/h
Spd
kts
Gust
kts
05/11:30pm 22.8 17.9 11.2 48 6.5 ESE 28 33 15 18 1016.0 1015.5 0.0
05/11:00pm 23.6 18.1 10.6 44 7.2 ESE 30 37 16 20 1016.0 1015.5 0.0
05/10:30pm 24.3 19.3 9.5 39 8.1 ESE 26 33 14 18 1015.9 1015.4 0.0
05/10:00pm 24.3 20.3 8.3 36 8.6 SE 19 24 10 13 1015.9 1015.4 0.0
05/09:30pm 24.9 21.6 8.0 34 9.0 SE 15 20 8 11 1015.4 1014.9 0.0
05/09:00pm 24.6 21.3 8.1 35 8.8 ESE 15 15 8 8 1015.3 1014.8 0.0
05/08:30pm 27.5 24.5 7.9 29 10.6 ESE 13 15 7 8 1015.0 1014.5 0.0
05/08:00pm 29.5 26.6 8.0 26 11.8 ESE 13 19 7 10 1014.7 1014.2 0.0
05/07:30pm 30.1 26.5 8.5 26 12.0 E 17 20 9 11 1014.5 1014.0 0.0
05/07:00pm 30.4 27.8 9.3 27 11.9 E 13 19 7 10 1014.4 1013.9 0.0
05/06:30pm 30.4 28.4 8.7 26 12.1 SSE 9 22 5 12 1014.4 1013.9 0.0
05/06:00pm 29.9 27.2 8.9 27 11.7 SE 13 20 7 11 1014.6 1014.1 0.0
05/05:30pm 30.2 27.2 9.1 27 11.8 ESE 15 26 8 14 1014.9 1014.4 0.0
05/05:00pm 30.1 26.4 9.6 28 11.6 SSE 19 30 10 16 1015.1 1014.6 0.0
05/04:30pm 30.3 27.1 9.8 28 11.6 ESE 17 28 9 15 1015.5 1015.0 0.0
05/04:00pm 30.0 27.0 10.5 30 11.2 SE 17 28 9 15 1015.8 1015.3 0.0
05/03:30pm 29.3 27.1 10.9 32 10.6 SSE 13 24 7 13 1016.3 1015.8 0.0
05/03:00pm 28.7 25.7 10.8 33 10.2 ESE 17 24 9 13 1016.8 1016.3 0.0
05/02:30pm 28.7 26.3 11.3 34 10.0 E 15 28 8 15 1017.1 1016.6 0.0
05/02:00pm 27.6 24.8 11.2 36 9.4 E 17 26 9 14 1017.5 1017.0 0.0
05/01:30pm 27.9 25.3 11.9 37 9.3 SE 17 26 9 14 1017.8 1017.3 0.0
05/01:00pm 26.1 23.7 11.5 40 8.3 ENE 15 30 8 16 1018.3 1017.8 0.0
05/12:30pm 25.9 22.9 12.0 42 8.0 ENE 19 30 10 16 1018.6 1018.1 0.0
05/12:00pm 24.6 21.3 11.5 44 7.4 ENE 20 30 11 16 1019.0 1018.5 0.0
05/11:30am 23.8 20.5 11.5 46 7.0 ENE 20 32 11 17 1019.3 1018.9 0.0
05/11:00am 23.2 18.9 11.9 49 6.4 E 26 37 14 20 1019.3 1018.9 0.0
05/10:30am 22.3 17.5 11.7 51 6.0 ESE 28 39 15 21 1019.4 1019.0 0.0
05/10:00am 20.8 15.2 11.4 55 5.2 ESE 32 39 17 21 1019.4 1019.0 0.0
05/09:30am 20.0 14.9 11.8 59 4.6 ESE 30 35 16 19 1019.5 1019.1 0.0
05/09:00am 18.1 15.8 11.7 66 3.5 SE 15 22 8 12 1019.5 1019.1 0.0
05/08:30am 15.2 12.9 10.6 74 2.4 S 13 15 7 8 1019.3 1018.9 0.0
05/08:00am 13.3 12.0 9.9 80 1.8 SSW 7 9 4 5 1019.0 1018.5 0.0
05/07:30am 11.8 9.9 9.2 84 1.3 SSW 9 11 5 6 1018.7 1018.2 0.0
05/07:00am 11.1 8.4 9.0 87 1.0 S 13 13 7 7 1018.5 1018.0 0.0
05/06:30am 10.5 7.7 8.4 87 1.0 SSE 13 17 7 9 1018.1 1017.6 0.0
05/06:00am 10.6 7.3 8.2 85 1.2 S 15 19 8 10 1017.8 1017.3 0.0
05/05:30am 12.1 9.2 9.5 84 1.3 S 15 19 8 10 1017.8 1017.3 0.0
05/05:00am 12.2 8.4 8.9 80 1.7 SSE 19 26 10 14 1017.8 1017.3 0.0
05/04:30am 13.3 9.1 9.7 79 1.9 SE 22 32 12 17 1017.7 1017.2 0.0
05/04:00am 11.1 9.4 8.5 84 1.3 SSW 7 11 4 6 1017.8 1017.3 0.0
05/03:30am 11.9 9.6 9.1 83 1.4 SE 11 15 6 8 1017.8 1017.3 0.0
05/03:00am 11.2 8.4 8.6 84 1.3 SE 13 17 7 9 1018.1 1017.6 0.0
05/02:30am 11.8 8.6 8.6 81 1.6 SSE 15 17 8 9 1018.0 1017.5 0.0
05/02:00am 12.2 9.4 8.7 79 1.8 SSE 13 17 7 9 1018.3 1017.8 0.0
05/01:30am 13.0 10.0 9.1 77 2.0 SSE 15 17 8 9 1018.5 1018.0 0.0
05/01:00am 13.7 11.1 9.2 74 2.3 SSE 13 17 7 9 1018.7 1018.2 0.0
05/12:30am 14.8 11.1 9.4 70 2.8 SSE 19 24 10 13 1018.5 1018.0 0.0
05/12:00am 15.6 11.0 9.7 68 3.1 SSE 24 28 13 15 1018.4 1017.9 0.0
 
Date/Time
EDT
Temp
°C
App
Temp
°C
Dew
Point
Rel
Hum
%
Delta-T
°C
Wind Press
QNH
hPa
Press
MSL
hPa
Rain
since 9 am
mm
Dir
 
Spd
km/h
Gust
km/h
Spd
kts
Gust
kts
04/11:30pm 16.2 10.8 9.4 64 3.5 SSE 28 33 15 18 1018.5 1018.0 0.0
04/11:00pm 16.8 11.3 9.2 61 4.0 S 28 33 15 18 1018.6 1018.1 0.0
04/10:30pm 17.4 11.6 9.3 59 4.3 SSE 30 33 16 18 1018.5 1018.0 0.0
04/10:00pm 18.2 13.0 9.0 55 4.8 SSE 26 32 14 17 1018.3 1017.8 0.0
04/09:30pm 19.0 13.8 8.9 52 5.3 SSE 26 32 14 17 1018.0 1017.5 0.0
04/09:00pm 20.0 14.5 9.0 49 5.8 SSE 28 37 15 20 1017.7 1017.2 0.0
04/08:30pm 21.3 14.7 8.6 44 6.7 SSE 33 46 18 25 1017.4 1016.9 0.0
04/08:00pm 22.8 15.3 8.1 39 7.8 SSE 37 44 20 24 1017.1 1016.6 0.0
04/07:30pm 24.0 16.9 8.0 36 8.5 SSE 35 44 19 24 1016.7 1016.2 0.0
04/07:00pm 25.1 17.9 7.7 33 9.3 SSE 35 44 19 24 1016.5 1016.0 0.0
04/06:30pm 26.0 19.3 8.0 32 9.7 SSE 33 44 18 24 1016.3 1015.8 0.0
04/06:00pm 26.1 19.0 8.1 32 9.7 SSE 35 46 19 25 1016.1 1015.6 0.0
04/05:30pm 26.5 19.8 8.0 31 10.0 SSE 33 44 18 24 1016.2 1015.7 0.0
04/05:00pm 27.1 19.9 7.5 29 10.5 S 35 46 19 25 1016.2 1015.7 0.0

Other Formats:

Comma delimited format used in spreadsheet applications
http://www.bom.gov.au/fwo/IDV60801/IDV60801.95839.axf

JavaScript Object Notation format (JSON) in row-major order
http://www.bom.gov.au/fwo/IDV60801/IDV60801.95839.json